EGMD/LYX METAR and TAF weather

Enter ICAO airport designator
Station Type Date Time Source
EGMD METAR 2020/07/10 15:20 UTC NOAA

EGMD 101520Z 29012KT 9999 FEW048 19/08 Q1019


Station Type Date Time Source
EGMD Decoded METAR 2020/07/10 15:20 UTC NOAA

Lydd Airport , United Kingdom (EGMD) 50-57N 000-56E
Jul 10, 2020 - 11:20 AM EDT / 2020.07.10 1520 UTC
Wind: from the WNW (290 degrees) at 14 MPH (12 KT):0
Visibility: greater than 7 mile(s):0
Sky conditions: mostly clear
Temperature: 66 F (19 C)
Dew Point: 46 F (8 C)
Relative Humidity: 48%
Pressure (altimeter): 30.09 in. Hg (1019 hPa)
ob: EGMD 101520Z 29012KT 9999 FEW048 19/08 Q1019
cycle: 15

Station Type Date Time Source
EGMD TAF UTC NOAA

Error!

Example: see airport list